Time;durP1;ratioP1;P1;durP2;ratioP2;P2;SDS_P1;SDS_P2;PMS_P1;PMS_P2;Temp;Humidity;BMP_temperature;BMP_pressure;BME280_temperature;BME280_humidity;BME280_pressure;Samples;Min_cycle;Max_cycle;Signal;HPM_P1;HPM_P2
2023/12/01 00:00:13;;;;;;;6.65;5.72;;;;;;;;;;5039281;28;20045;-74
2023/12/01 00:02:44;;;;;;;5.20;4.80;;;;;;;;;;5039965;28;20517;-75
2023/12/01 00:05:15;;;;;;;6.88;6.38;;;;;;;;;;5040803;28;20429;-74
2023/12/01 00:07:46;;;;;;;9.07;5.57;;;;;;;;;;5040536;28;20037;-73
2023/12/01 00:13:18;;;;;;;6.40;5.80;;;;;;;;;;5040133;28;20064;-75
2023/12/01 00:15:49;;;;;;;8.23;6.03;;;;;;;;;;5040291;28;20052;-74
2023/12/01 00:18:20;;;;;;;8.18;6.18;;;;;;;;;;5039719;28;20415;-75
2023/12/01 00:20:50;;;;;;;8.43;5.18;;;;;;;;;;5039846;28;20053;-74
2023/12/01 00:23:21;;;;;;;7.28;5.38;;;;;;;;;;5038668;28;20053;-73
2023/12/01 00:25:57;;;;;;;6.20;5.72;;;;;;;;;;5039384;28;20507;-76
2023/12/01 00:28:28;;;;;;;6.63;5.32;;;;;;;;;;5039428;28;20056;-75
2023/12/01 00:30:58;;;;;;;5.95;5.38;;;;;;;;;;5039983;28;20056;-75
2023/12/01 00:33:28;;;;;;;16.58;5.60;;;;;;;;;;5039448;28;20052;-74
2023/12/01 00:36:00;;;;;;;13.13;5.57;;;;;;;;;;5039685;28;20049;-75
2023/12/01 00:38:30;;;;;;;5.85;4.40;;;;;;;;;;5039831;28;20061;-75
2023/12/01 00:41:01;;;;;;;8.15;7.50;;;;;;;;;;5040520;28;20636;-73
2023/12/01 00:43:32;;;;;;;5.85;5.22;;;;;;;;;;5039164;28;20519;-75
2023/12/01 00:46:05;;;;;;;6.38;5.28;;;;;;;;;;5023266;28;20048;-76
2023/12/01 00:48:36;;;;;;;7.95;4.57;;;;;;;;;;5019443;28;20516;-74
2023/12/01 00:51:15;;;;;;;7.18;5.32;;;;;;;;;;5019461;28;20049;-75
2023/12/01 00:53:47;;;;;;;6.05;3.97;;;;;;;;;;5017554;28;20496;-74
2023/12/01 00:56:18;;;;;;;5.78;5.13;;;;;;;;;;5017374;28;20057;-75
2023/12/01 00:58:50;;;;;;;6.00;4.97;;;;;;;;;;5019405;28;20049;-75
2023/12/01 01:01:20;;;;;;;6.82;4.60;;;;;;;;;;5019011;28;21163;-74
2023/12/01 01:03:51;;;;;;;8.18;7.53;;;;;;;;;;5017912;28;20420;-75
2023/12/01 01:06:28;;;;;;;7.60;4.15;;;;;;;;;;5019500;28;20045;-74
2023/12/01 01:08:59;;;;;;;6.47;4.47;;;;;;;;;;5003261;28;20042;-74
2023/12/01 01:11:30;;;;;;;5.55;4.35;;;;;;;;;;5018090;28;20527;-75
2023/12/01 01:14:00;;;;;;;6.00;4.32;;;;;;;;;;5019742;28;20354;-75
2023/12/01 01:16:31;;;;;;;5.15;4.65;;;;;;;;;;5019781;28;20053;-75
2023/12/01 01:19:02;;;;;;;6.45;5.85;;;;;;;;;;5023773;28;20050;-74
2023/12/01 01:21:33;;;;;;;11.48;9.35;;;;;;;;;;5023820;28;20412;-74
2023/12/01 01:24:03;;;;;;;6.50;5.80;;;;;;;;;;5022097;28;20524;-74
2023/12/01 01:26:34;;;;;;;7.65;5.97;;;;;;;;;;5023541;28;20049;-74
2023/12/01 01:29:05;;;;;;;6.05;5.53;;;;;;;;;;5021602;28;20049;-74
2023/12/01 01:31:36;;;;;;;6.35;5.75;;;;;;;;;;5021923;28;20520;-75
2023/12/01 01:34:06;;;;;;;6.75;5.95;;;;;;;;;;5022942;28;20508;-74
2023/12/01 01:36:37;;;;;;;10.30;5.20;;;;;;;;;;5022710;28;20060;-75
2023/12/01 01:39:09;;;;;;;7.32;5.40;;;;;;;;;;5022874;28;20488;-74
2023/12/01 01:41:40;;;;;;;6.28;5.57;;;;;;;;;;5021401;28;20045;-74
2023/12/01 01:44:09;;;;;;;6.82;5.63;;;;;;;;;;5022827;28;20045;-73
2023/12/01 01:46:40;;;;;;;10.52;6.05;;;;;;;;;;5022886;28;20049;-72
2023/12/01 01:49:10;;;;;;;5.88;5.47;;;;;;;;;;5021062;28;20061;-72
2023/12/01 01:51:42;;;;;;;6.68;5.97;;;;;;;;;;5021917;28;20056;-74
2023/12/01 01:54:12;;;;;;;6.60;5.90;;;;;;;;;;5022478;28;20053;-73
2023/12/01 01:56:43;;;;;;;6.95;5.78;;;;;;;;;;5021614;28;20492;-74
2023/12/01 01:59:19;;;;;;;8.43;5.78;;;;;;;;;;5020980;28;20057;-74
2023/12/01 02:01:52;;;;;;;6.20;5.80;;;;;;;;;;5021727;28;20060;-73
2023/12/01 02:04:22;;;;;;;6.95;5.53;;;;;;;;;;5021320;28;20058;-73
2023/12/01 02:06:53;;;;;;;6.85;6.20;;;;;;;;;;5021088;28;20076;-74
2023/12/01 02:09:23;;;;;;;6.63;6.03;;;;;;;;;;5022626;28;20052;-73
2023/12/01 02:11:55;;;;;;;7.72;6.50;;;;;;;;;;5022494;28;20053;-74
2023/12/01 02:14:25;;;;;;;7.38;6.65;;;;;;;;;;5022464;28;20046;-73
2023/12/01 02:16:56;;;;;;;7.13;6.05;;;;;;;;;;5022426;28;20056;-73
2023/12/01 02:19:27;;;;;;;7.10;6.60;;;;;;;;;;5020941;28;20877;-75
2023/12/01 02:21:57;;;;;;;7.75;6.90;;;;;;;;;;5022387;28;20511;-76
2023/12/01 02:24:27;;;;;;;6.63;6.15;;;;;;;;;;5022731;28;20061;-73
2023/12/01 02:26:57;;;;;;;6.70;6.28;;;;;;;;;;5021436;28;20057;-74
2023/12/01 02:29:27;;;;;;;7.60;7.07;;;;;;;;;;5020931;28;20057;-73
2023/12/01 02:31:58;;;;;;;6.72;6.13;;;;;;;;;;5022220;28;20049;-74
2023/12/01 02:34:46;;;;;;;6.60;5.30;;;;;;;;;;5022177;28;20520;-73
2023/12/01 02:37:16;;;;;;;6.68;5.68;;;;;;;;;;5006520;28;20049;-74
2023/12/01 02:39:54;;;;;;;7.05;6.45;;;;;;;;;;5022133;28;20045;-73
2023/12/01 02:42:26;;;;;;;8.75;5.95;;;;;;;;;;5019471;28;20049;-74
2023/12/01 02:44:56;;;;;;;14.77;7.70;;;;;;;;;;5020084;28;20053;-74
2023/12/01 02:47:26;;;;;;;7.35;6.57;;;;;;;;;;5020079;28;20626;-73
2023/12/01 02:49:56;;;;;;;7.90;6.93;;;;;;;;;;5021857;28;20121;-73
2023/12/01 02:52:26;;;;;;;8.55;6.75;;;;;;;;;;5020781;28;20049;-74
2023/12/01 02:55:13;;;;;;;7.15;6.45;;;;;;;;;;5021888;28;20783;-73
2023/12/01 02:57:47;;;;;;;7.32;6.65;;;;;;;;;;5021490;28;20056;-73
2023/12/01 03:00:18;;;;;;;7.55;6.93;;;;;;;;;;5021824;28;20041;-74
2023/12/01 03:02:48;;;;;;;8.98;7.40;;;;;;;;;;5021867;28;20056;-74
2023/12/01 03:05:21;;;;;;;14.40;10.23;;;;;;;;;;5021413;28;20389;-74
2023/12/01 03:07:51;;;;;;;11.23;10.23;;;;;;;;;;5020494;28;20410;-74
2023/12/01 03:10:23;;;;;;;6.90;6.40;;;;;;;;;;5020971;28;20045;-73
2023/12/01 03:12:54;;;;;;;10.23;7.30;;;;;;;;;;5021989;28;20065;-73
2023/12/01 03:15:24;;;;;;;11.50;10.73;;;;;;;;;;5020214;28;20427;-73
2023/12/01 03:17:55;;;;;;;7.40;6.90;;;;;;;;;;5020866;28;20530;-74
2023/12/01 03:20:27;;;;;;;8.38;7.65;;;;;;;;;;5021399;28;20056;-75
2023/12/01 03:22:58;;;;;;;8.40;7.57;;;;;;;;;;5020617;28;20069;-75
2023/12/01 03:25:28;;;;;;;9.38;6.65;;;;;;;;;;5021003;28;20080;-76
2023/12/01 03:27:59;;;;;;;9.05;8.23;;;;;;;;;;5020942;28;20527;-75
2023/12/01 03:30:29;;;;;;;7.70;7.00;;;;;;;;;;5019327;28;20061;-76
2023/12/01 03:32:59;;;;;;;7.80;7.20;;;;;;;;;;5020554;28;20049;-75
2023/12/01 03:35:29;;;;;;;8.15;6.93;;;;;;;;;;5020350;28;20041;-73
2023/12/01 03:38:00;;;;;;;8.10;6.65;;;;;;;;;;5020970;28;20061;-74
2023/12/01 03:40:30;;;;;;;8.38;7.57;;;;;;;;;;5020984;28;20060;-74
2023/12/01 03:43:23;;;;;;;11.73;7.53;;;;;;;;;;5020519;28;20638;-74
2023/12/01 03:45:53;;;;;;;9.57;7.68;;;;;;;;;;5019474;28;20069;-74
2023/12/01 03:48:24;;;;;;;7.75;7.00;;;;;;;;;;5019192;28;20065;-74
2023/12/01 03:50:54;;;;;;;9.13;7.03;;;;;;;;;;5020918;28;20618;-73
2023/12/01 03:53:30;;;;;;;7.95;7.32;;;;;;;;;;5020795;28;20508;-74
2023/12/01 03:56:02;;;;;;;8.07;7.43;;;;;;;;;;5019327;28;20486;-74
2023/12/01 03:58:33;;;;;;;7.75;6.97;;;;;;;;;;5018537;28;20535;-73
2023/12/01 04:01:05;;;;;;;8.50;7.70;;;;;;;;;;5020574;28;20049;-73
2023/12/01 04:03:36;;;;;;;8.88;8.07;;;;;;;;;;5019187;28;20371;-73
2023/12/01 04:06:07;;;;;;;12.13;11.25;;;;;;;;;;5020401;28;20420;-74
2023/12/01 04:08:37;;;;;;;7.50;6.93;;;;;;;;;;5018705;28;20053;-74
2023/12/01 04:11:09;;;;;;;8.68;7.97;;;;;;;;;;5020407;28;20057;-74
2023/12/01 04:13:40;;;;;;;12.68;11.65;;;;;;;;;;5018226;28;20049;-74
2023/12/01 04:16:11;;;;;;;9.15;8.35;;;;;;;;;;5020168;28;20048;-74
2023/12/01 04:18:45;;;;;;;13.35;7.90;;;;;;;;;;5002816;28;20164;-74
2023/12/01 04:21:52;;;;;;;11.40;10.65;;;;;;;;;;5018898;28;20429;-73
2023/12/01 04:24:22;;;;;;;8.57;7.72;;;;;;;;;;5019478;28;20064;-73
2023/12/01 04:26:52;;;;;;;9.38;8.45;;;;;;;;;;5019817;28;20052;-73
2023/12/01 04:29:22;;;;;;;7.95;7.28;;;;;;;;;;5019602;28;20053;-74
2023/12/01 04:31:52;;;;;;;11.73;8.10;;;;;;;;;;5019288;28;20508;-73
2023/12/01 04:34:30;;;;;;;8.38;7.65;;;;;;;;;;5020201;28;20080;-73
2023/12/01 04:37:00;;;;;;;8.90;7.70;;;;;;;;;;5020230;28;20057;-73
2023/12/01 04:39:31;;;;;;;10.45;9.48;;;;;;;;;;5019753;28;20053;-73
2023/12/01 04:42:01;;;;;;;10.60;9.35;;;;;;;;;;5021566;28;20061;-73
2023/12/01 04:44:32;;;;;;;8.43;7.63;;;;;;;;;;5022470;28;20053;-73
2023/12/01 04:47:02;;;;;;;11.20;8.40;;;;;;;;;;5022241;28;20038;-74
2023/12/01 04:49:32;;;;;;;10.05;8.68;;;;;;;;;;5022372;28;20060;-73
2023/12/01 04:52:03;;;;;;;13.23;12.15;;;;;;;;;;5021527;28;20416;-73
2023/12/01 04:54:35;;;;;;;9.75;8.98;;;;;;;;;;5022067;28;20512;-73
2023/12/01 04:57:06;;;;;;;17.70;9.07;;;;;;;;;;5022495;28;20518;-73
2023/12/01 04:59:36;;;;;;;10.18;7.25;;;;;;;;;;5022378;28;20053;-73
2023/12/01 05:02:07;;;;;;;9.18;8.35;;;;;;;;;;5022667;28;20041;-73
2023/12/01 05:04:38;;;;;;;9.80;7.55;;;;;;;;;;5022285;28;20064;-73
2023/12/01 05:07:09;;;;;;;9.65;8.35;;;;;;;;;;5022666;28;20049;-73
2023/12/01 05:09:58;;;;;;;9.27;8.35;;;;;;;;;;5022414;28;20501;-73
2023/12/01 05:12:30;;;;;;;9.60;8.88;;;;;;;;;;5020256;28;20080;-73
2023/12/01 05:15:01;;;;;;;8.20;7.60;;;;;;;;;;5021818;28;20053;-73
2023/12/01 05:17:32;;;;;;;8.85;7.72;;;;;;;;;;5021671;28;20053;-73
2023/12/01 05:20:03;;;;;;;9.52;8.63;;;;;;;;;;5022151;28;20045;-73
2023/12/01 05:22:33;;;;;;;8.80;8.18;;;;;;;;;;5022051;28;20496;-73
2023/12/01 05:25:04;;;;;;;7.43;6.65;;;;;;;;;;5021904;28;21126;-74
2023/12/01 05:27:36;;;;;;;8.60;7.05;;;;;;;;;;5022079;28;20527;-73
2023/12/01 05:30:07;;;;;;;8.30;7.43;;;;;;;;;;5021896;28;20290;-73
2023/12/01 05:32:38;;;;;;;9.88;9.18;;;;;;;;;;5022147;28;20045;-73
2023/12/01 05:35:10;;;;;;;10.48;9.75;;;;;;;;;;5022288;28;20436;-73
2023/12/01 05:37:47;;;;;;;11.43;10.60;;;;;;;;;;5022243;28;20392;-73
2023/12/01 05:40:27;;;;;;;7.38;6.72;;;;;;;;;;5021962;28;20060;-73
2023/12/01 05:42:58;;;;;;;9.63;7.40;;;;;;;;;;5021764;28;20053;-73
2023/12/01 05:45:35;;;;;;;8.48;7.82;;;;;;;;;;5021424;28;20060;-73
2023/12/01 05:48:07;;;;;;;9.02;8.13;;;;;;;;;;5020198;28;20053;-73
2023/12/01 05:50:42;;;;;;;7.97;7.25;;;;;;;;;;5022046;28;20513;-73
2023/12/01 05:53:13;;;;;;;9.30;7.60;;;;;;;;;;5021842;28;20520;-73
2023/12/01 05:55:44;;;;;;;9.13;8.40;;;;;;;;;;5021753;28;20053;-73
2023/12/01 05:58:15;;;;;;;8.40;7.60;;;;;;;;;;5021817;28;20057;-73
2023/12/01 06:00:45;;;;;;;9.23;8.40;;;;;;;;;;5021490;28;20539;-73
2023/12/01 06:03:18;;;;;;;11.20;10.35;;;;;;;;;;5023149;28;20393;-73
2023/12/01 06:05:48;;;;;;;11.88;8.15;;;;;;;;;;5024204;28;20054;-73
2023/12/01 06:08:19;;;;;;;10.52;6.78;;;;;;;;;;5025529;28;20052;-73
2023/12/01 06:10:49;;;;;;;12.40;11.55;;;;;;;;;;5025804;28;21142;-73
2023/12/01 06:13:26;;;;;;;9.65;6.72;;;;;;;;;;5025104;28;20891;-73
2023/12/01 06:15:59;;;;;;;7.72;6.93;;;;;;;;;;5024682;28;20042;-73
2023/12/01 06:18:30;;;;;;;8.32;7.65;;;;;;;;;;5025819;28;20523;-73
2023/12/01 06:21:01;;;;;;;9.75;7.05;;;;;;;;;;5025805;28;20049;-73
2023/12/01 06:23:32;;;;;;;8.10;7.50;;;;;;;;;;5025026;28;20621;-74
2023/12/01 06:29:06;;;;;;;7.95;7.15;;;;;;;;;;5024941;28;20045;-74
2023/12/01 06:31:36;;;;;;;11.93;6.55;;;;;;;;;;5024939;28;20049;-73
2023/12/01 06:34:07;;;;;;;9.00;6.15;;;;;;;;;;5024824;28;20113;-73
2023/12/01 06:36:37;;;;;;;7.25;6.32;;;;;;;;;;5025142;28;20057;-73
2023/12/01 06:39:10;;;;;;;7.38;6.22;;;;;;;;;;5024576;28;20061;-74
2023/12/01 06:41:41;;;;;;;10.02;7.25;;;;;;;;;;5024726;28;20045;-73
2023/12/01 06:44:11;;;;;;;9.05;6.22;;;;;;;;;;5025502;28;20049;-73
2023/12/01 06:46:42;;;;;;;9.00;6.03;;;;;;;;;;5024844;28;20090;-73
2023/12/01 06:49:12;;;;;;;10.80;9.82;;;;;;;;;;5024234;28;20416;-73
2023/12/01 06:51:43;;;;;;;8.45;5.93;;;;;;;;;;5024247;28;20048;-73
2023/12/01 06:54:14;;;;;;;6.85;5.80;;;;;;;;;;5024584;28;20055;-73
2023/12/01 06:56:43;;;;;;;9.80;8.95;;;;;;;;;;5024986;28;20408;-73
2023/12/01 06:59:14;;;;;;;9.30;8.60;;;;;;;;;;5024212;28;20413;-73
2023/12/01 07:01:44;;;;;;;6.97;6.25;;;;;;;;;;5024674;28;20057;-73
2023/12/01 07:04:15;;;;;;;7.32;6.40;;;;;;;;;;5024767;28;20045;-73
2023/12/01 07:06:47;;;;;;;9.35;5.95;;;;;;;;;;5023992;28;20061;-73
2023/12/01 07:09:17;;;;;;;9.73;6.07;;;;;;;;;;5022982;28;20056;-73
2023/12/01 07:11:48;;;;;;;6.88;6.20;;;;;;;;;;5023969;28;20049;-73
2023/12/01 07:14:19;;;;;;;7.32;6.38;;;;;;;;;;5023098;28;20543;-73
2023/12/01 07:16:49;;;;;;;7.10;6.50;;;;;;;;;;5024943;28;20072;-73
2023/12/01 07:19:19;;;;;;;7.68;7.05;;;;;;;;;;5023737;28;20045;-73
2023/12/01 07:21:50;;;;;;;7.10;5.35;;;;;;;;;;5023681;28;20049;-73
2023/12/01 07:24:21;;;;;;;8.63;5.30;;;;;;;;;;5023936;28;20048;-73
2023/12/01 07:26:52;;;;;;;7.10;5.60;;;;;;;;;;5023032;28;20061;-73
2023/12/01 07:29:22;;;;;;;8.88;7.78;;;;;;;;;;5024041;28;20037;-73
2023/12/01 07:32:48;;;;;;;9.63;6.90;;;;;;;;;;5024945;28;20049;-73
2023/12/01 07:35:19;;;;;;;6.95;6.45;;;;;;;;;;5024180;28;20053;-73
2023/12/01 07:37:58;;;;;;;7.13;6.53;;;;;;;;;;5023070;28;20065;-74
2023/12/01 07:40:31;;;;;;;8.35;6.32;;;;;;;;;;5022092;28;20078;-73
2023/12/01 07:43:05;;;;;;;8.25;7.45;;;;;;;;;;5023477;28;20056;-73
2023/12/01 07:45:36;;;;;;;7.65;6.78;;;;;;;;;;5023398;28;20049;-74
2023/12/01 07:48:09;;;;;;;6.90;6.32;;;;;;;;;;5024181;28;20084;-74
2023/12/01 07:50:40;;;;;;;6.97;5.18;;;;;;;;;;5023668;28;20049;-73
2023/12/01 07:53:09;;;;;;;6.95;6.35;;;;;;;;;;5023438;28;20052;-74
2023/12/01 07:55:43;;;;;;;9.10;5.95;;;;;;;;;;5022679;28;20042;-74
2023/12/01 07:58:14;;;;;;;7.88;7.03;;;;;;;;;;5023306;28;20050;-73
2023/12/01 08:00:57;;;;;;;11.82;6.65;;;;;;;;;;5023306;28;20041;-74
2023/12/01 08:03:29;;;;;;;7.47;6.25;;;;;;;;;;5023961;28;20052;-74
2023/12/01 08:06:00;;;;;;;8.35;6.30;;;;;;;;;;5023470;28;20037;-74
2023/12/01 08:08:30;;;;;;;7.30;6.32;;;;;;;;;;5023456;28;20044;-74
2023/12/01 08:11:09;;;;;;;7.72;7.05;;;;;;;;;;5022715;28;20041;-74
2023/12/01 08:13:39;;;;;;;8.02;6.45;;;;;;;;;;5022922;28;20358;-74
2023/12/01 08:16:09;;;;;;;11.23;6.60;;;;;;;;;;5022539;28;20049;-74
2023/12/01 08:18:40;;;;;;;8.90;7.97;;;;;;;;;;5022574;28;20096;-74
2023/12/01 08:21:11;;;;;;;7.72;7.03;;;;;;;;;;5022937;28;20048;-74
2023/12/01 08:23:43;;;;;;;10.45;9.55;;;;;;;;;;5022972;28;20416;-74
2023/12/01 08:26:13;;;;;;;9.70;7.57;;;;;;;;;;5022569;28;20049;-74
2023/12/01 08:28:47;;;;;;;9.85;6.72;;;;;;;;;;5021874;28;20058;-74
2023/12/01 08:31:17;;;;;;;8.70;6.90;;;;;;;;;;5022649;28;20053;-74
2023/12/01 08:33:48;;;;;;;8.07;6.30;;;;;;;;;;5022999;28;20045;-74
2023/12/01 08:36:19;;;;;;;8.80;7.47;;;;;;;;;;5022724;28;20045;-74
2023/12/01 08:38:50;;;;;;;11.18;10.05;;;;;;;;;;5022866;28;20423;-74
2023/12/01 08:41:20;;;;;;;12.00;6.97;;;;;;;;;;5022419;28;20053;-74
2023/12/01 08:43:51;;;;;;;14.35;10.05;;;;;;;;;;5023177;28;20396;-74
2023/12/01 08:46:21;;;;;;;12.15;7.10;;;;;;;;;;5022461;28;20068;-74
2023/12/01 08:48:53;;;;;;;9.95;7.95;;;;;;;;;;5022335;28;20775;-74
2023/12/01 08:51:24;;;;;;;8.63;7.03;;;;;;;;;;5022192;28;20045;-74
2023/12/01 08:53:54;;;;;;;7.63;6.20;;;;;;;;;;5020549;28;20041;-74
2023/12/01 08:56:34;;;;;;;10.50;6.85;;;;;;;;;;5022063;28;20049;-74
2023/12/01 08:59:04;;;;;;;8.38;7.65;;;;;;;;;;5022038;28;20049;-74
2023/12/01 09:01:35;;;;;;;8.00;6.78;;;;;;;;;;5022142;28;20053;-74
2023/12/01 09:04:05;;;;;;;10.15;7.20;;;;;;;;;;5022665;28;20505;-78
2023/12/01 09:06:39;;;;;;;14.63;13.57;;;;;;;;;;5021887;28;20626;-73
2023/12/01 09:09:13;;;;;;;8.55;7.05;;;;;;;;;;5022668;28;20049;-74
2023/12/01 09:11:45;;;;;;;9.80;8.40;;;;;;;;;;5022423;28;20053;-74
2023/12/01 09:14:15;;;;;;;11.02;10.00;;;;;;;;;;5022427;28;20049;-74
2023/12/01 09:16:46;;;;;;;9.00;8.13;;;;;;;;;;5022111;28;20049;-74
2023/12/01 09:19:16;;;;;;;7.43;6.47;;;;;;;;;;5021220;28;20060;-74
2023/12/01 09:21:48;;;;;;;8.43;7.53;;;;;;;;;;5022969;28;20057;-74
2023/12/01 09:24:18;;;;;;;10.55;9.57;;;;;;;;;;5022324;28;20057;-74
2023/12/01 09:26:48;;;;;;;11.23;7.45;;;;;;;;;;5022171;28;20045;-74
2023/12/01 09:29:18;;;;;;;11.05;6.80;;;;;;;;;;5021659;28;20049;-74
2023/12/01 09:31:49;;;;;;;7.85;7.15;;;;;;;;;;5021806;28;20055;-75
2023/12/01 09:34:20;;;;;;;9.98;9.20;;;;;;;;;;5022039;28;20643;-75
2023/12/01 09:36:50;;;;;;;9.77;7.70;;;;;;;;;;5021851;28;20053;-74
2023/12/01 09:39:21;;;;;;;9.32;7.40;;;;;;;;;;5025166;28;20062;-73
2023/12/01 09:41:54;;;;;;;7.93;7.20;;;;;;;;;;5026082;28;20080;-76
2023/12/01 09:44:26;;;;;;;12.32;8.35;;;;;;;;;;5025893;28;20045;-74
2023/12/01 09:46:58;;;;;;;9.05;8.10;;;;;;;;;;5025329;28;20053;-74
2023/12/01 09:49:33;;;;;;;11.00;6.82;;;;;;;;;;5025249;28;20536;-77
2023/12/01 09:52:05;;;;;;;11.05;8.75;;;;;;;;;;5025719;28;20049;-74
2023/12/01 09:55:08;;;;;;;8.52;7.80;;;;;;;;;;5025286;28;20054;-75
2023/12/01 09:57:39;;;;;;;12.77;8.88;;;;;;;;;;5025908;28;20048;-74
2023/12/01 10:00:12;;;;;;;11.65;8.43;;;;;;;;;;5026684;28;20512;-79
2023/12/01 10:02:44;;;;;;;12.00;11.07;;;;;;;;;;5025210;28;20408;-74
2023/12/01 10:05:21;;;;;;;10.13;7.10;;;;;;;;;;5025608;28;20069;-74
2023/12/01 10:07:53;;;;;;;9.60;8.13;;;;;;;;;;5025474;28;20057;-74
2023/12/01 10:10:26;;;;;;;9.38;8.13;;;;;;;;;;5024174;28;20045;-74
2023/12/01 10:13:05;;;;;;;10.40;7.22;;;;;;;;;;5025756;28;20057;-76
2023/12/01 10:15:38;;;;;;;11.43;7.45;;;;;;;;;;5024644;28;20053;-74
2023/12/01 10:18:15;;;;;;;8.52;7.70;;;;;;;;;;5025437;28;20048;-74
2023/12/01 10:20:59;;;;;;;14.25;7.60;;;;;;;;;;5025467;28;20072;-74
2023/12/01 10:23:32;;;;;;;8.52;7.53;;;;;;;;;;5025084;28;20053;-74
2023/12/01 10:26:04;;;;;;;17.33;8.15;;;;;;;;;;5024797;28;20049;-74
2023/12/01 10:28:42;;;;;;;20.48;8.35;;;;;;;;;;5025342;28;20068;-75
2023/12/01 10:31:16;;;;;;;11.35;7.68;;;;;;;;;;5025575;28;20056;-78
2023/12/01 10:33:48;;;;;;;13.38;12.18;;;;;;;;;;5025649;28;20417;-75
2023/12/01 10:36:20;;;;;;;8.30;7.38;;;;;;;;;;5024883;28;20045;-74
2023/12/01 10:38:52;;;;;;;12.77;8.50;;;;;;;;;;5027656;28;20049;-75
2023/12/01 10:41:23;;;;;;;9.40;7.40;;;;;;;;;;5044153;28;20055;-74
2023/12/01 10:43:54;;;;;;;8.00;7.13;;;;;;;;;;5043925;28;20041;-84
2023/12/01 10:46:26;;;;;;;15.20;10.95;;;;;;;;;;5044145;28;20440;-74
2023/12/01 10:48:58;;;;;;;10.77;9.75;;;;;;;;;;5043437;28;20501;-75
2023/12/01 10:51:28;;;;;;;9.05;6.75;;;;;;;;;;5044108;28;20072;-74
2023/12/01 10:54:01;;;;;;;7.38;6.78;;;;;;;;;;5043844;28;20546;-75
2023/12/01 10:57:26;;;;;;;7.00;6.25;;;;;;;;;;5044489;28;20049;-75
2023/12/01 10:59:59;;;;;;;;;;;;;;;;;;5044759;28;20528;-78
2023/12/01 11:02:31;;;;;;;7.32;6.55;;;;;;;;;;5044752;28;20701;-74
2023/12/01 11:05:03;;;;;;;7.35;6.72;;;;;;;;;;5044468;28;20115;-74
2023/12/01 11:07:42;;;;;;;6.63;6.13;;;;;;;;;;5044162;28;20514;-74
2023/12/01 11:10:35;;;;;;;6.07;5.32;;;;;;;;;;5044138;28;20052;-75
2023/12/01 11:13:52;;;;;;;6.70;6.07;;;;;;;;;;5043699;28;20531;-76
2023/12/01 11:16:23;;;;;;;11.25;10.20;;;;;;;;;;5042763;28;20419;-74
2023/12/01 11:18:56;;;;;;;4.70;4.30;;;;;;;;;;5043915;28;20048;-75
2023/12/01 11:21:28;;;;;;;5.60;5.07;;;;;;;;;;5043315;28;20353;-75
2023/12/01 11:24:26;;;;;;;7.82;7.22;;;;;;;;;;5043939;28;20049;-75
2023/12/01 11:27:05;;;;;;;9.80;6.40;;;;;;;;;;5043537;28;20079;-74
2023/12/01 11:29:37;;;;;;;8.52;6.75;;;;;;;;;;5044109;28;20041;-75
2023/12/01 11:32:07;;;;;;;7.38;6.75;;;;;;;;;;5043867;28;20048;-75
2023/12/01 11:35:04;;;;;;;7.70;6.93;;;;;;;;;;5042850;28;20079;-76
2023/12/01 11:37:59;;;;;;;7.57;6.97;;;;;;;;;;5040445;28;20068;-77
2023/12/01 11:40:41;;;;;;;6.72;6.13;;;;;;;;;;5043696;28;20048;-74
2023/12/01 11:43:11;;;;;;;7.70;6.78;;;;;;;;;;5043272;28;20401;-74
2023/12/01 11:45:50;;;;;;;4.05;2.63;;;;;;;;;;5043424;28;20594;-75
2023/12/01 11:48:21;;;;;;;5.50;2.90;;;;;;;;;;5043609;28;20048;-75
2023/12/01 11:50:54;;;;;;;4.05;3.50;;;;;;;;;;5041922;28;20526;-75
2023/12/01 11:53:25;;;;;;;2.83;2.33;;;;;;;;;;5043038;28;20044;-74
2023/12/01 11:55:55;;;;;;;12.48;2.88;;;;;;;;;;5042987;28;20045;-74
2023/12/01 11:58:25;;;;;;;4.60;2.67;;;;;;;;;;5043775;28;20044;-75
2023/12/01 12:00:56;;;;;;;7.80;2.95;;;;;;;;;;5042524;28;20747;-75
2023/12/01 12:03:26;;;;;;;4.80;2.90;;;;;;;;;;5043295;28;20053;-80
2023/12/01 12:05:56;;;;;;;4.72;3.15;;;;;;;;;;5042673;28;20053;-75
2023/12/01 12:08:27;;;;;;;4.70;2.85;;;;;;;;;;5043007;28;20530;-76
2023/12/01 12:10:59;;;;;;;4.70;2.85;;;;;;;;;;5042699;28;20045;-78
2023/12/01 12:13:29;;;;;;;4.13;2.80;;;;;;;;;;5042395;28;20064;-75
2023/12/01 12:15:59;;;;;;;10.05;2.92;;;;;;;;;;5042686;28;20048;-75
2023/12/01 12:18:30;;;;;;;5.97;2.72;;;;;;;;;;5042669;28;20048;-75
2023/12/01 12:21:05;;;;;;;4.50;2.80;;;;;;;;;;5043043;28;20048;-75
2023/12/01 12:23:36;;;;;;;3.67;2.72;;;;;;;;;;5025448;28;20057;-74
2023/12/01 12:26:26;;;;;;;5.03;2.50;;;;;;;;;;5042363;28;20056;-75
2023/12/01 12:29:01;;;;;;;5.70;2.20;;;;;;;;;;5042726;28;20045;-75
2023/12/01 12:31:41;;;;;;;3.13;2.13;;;;;;;;;;5042578;28;20052;-74
2023/12/01 12:34:12;;;;;;;2.67;2.25;;;;;;;;;;5042591;28;20040;-74
2023/12/01 12:36:47;;;;;;;3.60;2.67;;;;;;;;;;5042479;28;20052;-75
2023/12/01 12:39:17;;;;;;;3.42;2.58;;;;;;;;;;5042816;28;20518;-75
2023/12/01 12:41:57;;;;;;;4.00;2.97;;;;;;;;;;5042114;28;20049;-77
2023/12/01 12:44:31;;;;;;;8.35;2.78;;;;;;;;;;5042140;28;20500;-75
2023/12/01 12:47:06;;;;;;;6.25;2.92;;;;;;;;;;5042207;28;20060;-75
2023/12/01 12:49:36;;;;;;;5.38;3.05;;;;;;;;;;5040938;28;20060;-75
2023/12/01 12:52:07;;;;;;;5.82;3.08;;;;;;;;;;5042435;28;20343;-75
2023/12/01 12:54:42;;;;;;;4.50;3.03;;;;;;;;;;5040498;28;20504;-75
2023/12/01 12:57:13;;;;;;;3.50;3.20;;;;;;;;;;5043214;28;20049;-75
2023/12/01 12:59:43;;;;;;;4.63;2.72;;;;;;;;;;5041012;28;20507;-75
2023/12/01 13:02:13;;;;;;;5.38;2.60;;;;;;;;;;5041740;28;20071;-75
2023/12/01 13:04:44;;;;;;;5.20;3.10;;;;;;;;;;5041947;28;20049;-75
2023/12/01 13:07:15;;;;;;;5.13;3.08;;;;;;;;;;5040782;28;20052;-75
2023/12/01 13:09:44;;;;;;;5.15;2.97;;;;;;;;;;5042025;28;20045;-75
2023/12/01 13:12:15;;;;;;;5.07;2.75;;;;;;;;;;5041537;28;20048;-75
2023/12/01 13:14:46;;;;;;;4.32;3.25;;;;;;;;;;5041779;28;20049;-75
2023/12/01 13:17:17;;;;;;;8.85;3.97;;;;;;;;;;5041862;28;20395;-74
2023/12/01 13:19:48;;;;;;;6.95;3.53;;;;;;;;;;5041701;28;20044;-75
2023/12/01 13:22:18;;;;;;;4.53;3.00;;;;;;;;;;5041892;28;20041;-75
2023/12/01 13:24:49;;;;;;;3.15;2.85;;;;;;;;;;5040721;28;20809;-74
2023/12/01 13:27:19;;;;;;;9.77;2.92;;;;;;;;;;5042760;28;20594;-75
2023/12/01 13:29:49;;;;;;;3.15;2.85;;;;;;;;;;5040397;28;20080;-75
2023/12/01 13:32:19;;;;;;;5.50;2.47;;;;;;;;;;5041844;28;20060;-75
2023/12/01 13:34:49;;;;;;;3.13;2.83;;;;;;;;;;5042555;28;20061;-75
2023/12/01 13:37:19;;;;;;;3.28;2.95;;;;;;;;;;5040009;28;20072;-75
2023/12/01 13:39:49;;;;;;;3.00;2.70;;;;;;;;;;5039918;28;20060;-75
2023/12/01 13:42:20;;;;;;;3.28;3.08;;;;;;;;;;5041427;28;20072;-75
2023/12/01 13:44:51;;;;;;;5.50;2.78;;;;;;;;;;5041632;28;20052;-74
2023/12/01 13:47:22;;;;;;;5.78;2.67;;;;;;;;;;5041885;28;20504;-75
2023/12/01 13:49:52;;;;;;;3.38;3.05;;;;;;;;;;5041296;28;20051;-75
2023/12/01 13:52:27;;;;;;;6.10;3.25;;;;;;;;;;5041383;28;20041;-75
2023/12/01 13:54:57;;;;;;;4.07;2.85;;;;;;;;;;5040852;28;20056;-74
2023/12/01 13:57:27;;;;;;;3.33;2.90;;;;;;;;;;5041732;28;20496;-75
2023/12/01 13:59:57;;;;;;;7.15;3.03;;;;;;;;;;5041665;28;20076;-75
2023/12/01 14:02:28;;;;;;;5.43;4.15;;;;;;;;;;5040110;28;20053;-77
2023/12/01 14:04:59;;;;;;;4.75;4.32;;;;;;;;;;5040428;28;20140;-74
2023/12/01 14:07:32;;;;;;;4.05;3.70;;;;;;;;;;5040316;28;20064;-74
2023/12/01 14:10:06;;;;;;;4.95;3.75;;;;;;;;;;5041161;28;20416;-74
2023/12/01 14:12:36;;;;;;;5.22;2.63;;;;;;;;;;5041453;28;20746;-74
2023/12/01 14:15:07;;;;;;;5.55;3.47;;;;;;;;;;5041578;28;20060;-74
2023/12/01 14:17:38;;;;;;;5.40;3.10;;;;;;;;;;5041255;28;20052;-74
2023/12/01 14:20:09;;;;;;;4.82;3.25;;;;;;;;;;5040886;28;20114;-74
2023/12/01 14:22:40;;;;;;;3.08;2.60;;;;;;;;;;5041247;28;20060;-75
2023/12/01 14:25:12;;;;;;;7.88;2.83;;;;;;;;;;5044789;28;20056;-74
2023/12/01 14:27:43;;;;;;;3.50;2.88;;;;;;;;;;5044714;28;20053;-75
2023/12/01 14:30:14;;;;;;;3.95;3.42;;;;;;;;;;5044428;28;20049;-75
2023/12/01 14:32:45;;;;;;;4.70;3.25;;;;;;;;;;5044404;28;20056;-74
2023/12/01 14:35:15;;;;;;;4.18;3.42;;;;;;;;;;5045294;28;20432;-74
2023/12/01 14:37:46;;;;;;;3.53;2.88;;;;;;;;;;5044056;28;20056;-74
2023/12/01 14:40:15;;;;;;;3.90;3.25;;;;;;;;;;5044748;28;20053;-75
2023/12/01 14:42:46;;;;;;;6.03;2.85;;;;;;;;;;5044499;28;20582;-75
2023/12/01 14:45:17;;;;;;;3.50;3.17;;;;;;;;;;5044707;28;20056;-80
2023/12/01 14:47:47;;;;;;;5.07;3.90;;;;;;;;;;5044183;28;20049;-74
2023/12/01 14:50:17;;;;;;;4.53;3.35;;;;;;;;;;5044830;28;20053;-74
2023/12/01 14:52:48;;;;;;;3.33;3.13;;;;;;;;;;5045356;28;20052;-76
2023/12/01 14:55:18;;;;;;;6.88;3.17;;;;;;;;;;5044336;28;20049;-74
2023/12/01 14:57:48;;;;;;;4.60;3.08;;;;;;;;;;5044255;28;20419;-75
2023/12/01 15:00:21;;;;;;;3.70;2.92;;;;;;;;;;5043927;28;20060;-75
2023/12/01 15:02:53;;;;;;;4.93;4.40;;;;;;;;;;5043970;28;20408;-75
2023/12/01 15:05:23;;;;;;;3.45;3.15;;;;;;;;;;5042804;28;20507;-75
2023/12/01 15:07:54;;;;;;;16.23;3.20;;;;;;;;;;5042771;28;20415;-76
2023/12/01 15:10:24;;;;;;;3.95;3.30;;;;;;;;;;5044176;28;20049;-75
2023/12/01 15:12:54;;;;;;;3.78;3.20;;;;;;;;;;5043696;28;20049;-74
2023/12/01 15:15:25;;;;;;;3.78;2.80;;;;;;;;;;5043610;28;20055;-75
2023/12/01 15:17:57;;;;;;;4.63;2.60;;;;;;;;;;5042789;28;20057;-76